Time;durP1;ratioP1;P1;durP2;ratioP2;P2;SDS_P1;SDS_P2;PMS_P1;PMS_P2;Temp;Humidity;BMP_temperature;BMP_pressure;BME280_temperature;BME280_humidity;BME280_pressure;Samples;Min_cycle;Max_cycle;Signal;HPM_P1;HPM_P2
2024/02/20 00:01:13;;;;;;;16.10;7.93;;;6.40;99.90;;;;;;6081892;23;20018;-78
2024/02/20 00:04:01;;;;;;;18.52;8.75;;;6.40;99.90;;;;;;6080987;23;20449;-76
2024/02/20 00:06:49;;;;;;;19.27;8.20;;;6.40;99.90;;;;;;6055096;23;20070;-78
2024/02/20 00:09:40;;;;;;;17.13;7.45;;;6.40;99.90;;;;;;6072684;23;20517;-78
2024/02/20 00:12:29;;;;;;;18.02;7.35;;;6.40;99.90;;;;;;6071274;23;20084;-79
2024/02/20 00:15:16;;;;;;;18.27;7.13;;;6.30;99.90;;;;;;6067558;23;20031;-78
2024/02/20 00:18:04;;;;;;;17.20;6.82;;;6.30;99.90;;;;;;6040816;23;20031;-78
2024/02/20 00:20:52;;;;;;;12.98;6.90;;;6.30;99.90;;;;;;6069811;23;20027;-78
2024/02/20 00:23:43;;;;;;;14.88;7.18;;;6.30;99.90;;;;;;6058975;23;20055;-79
2024/02/20 00:26:31;;;;;;;11.85;6.85;;;6.30;99.90;;;;;;6036122;23;20034;-80
2024/02/20 00:29:18;;;;;;;13.32;5.80;;;6.20;99.90;;;;;;6039514;23;20034;-79
2024/02/20 00:32:07;;;;;;;10.00;5.05;;;6.20;99.90;;;;;;6039195;23;20082;-80
2024/02/20 00:34:57;;;;;;;12.43;5.72;;;6.20;99.90;;;;;;6060145;23;20042;-80
2024/02/20 00:37:48;;;;;;;9.25;5.15;;;6.20;99.90;;;;;;6066974;23;20031;-79
2024/02/20 00:40:35;;;;;;;13.43;5.25;;;6.20;99.90;;;;;;6070329;23;20034;-78
2024/02/20 00:43:24;;;;;;;11.07;5.20;;;6.20;99.90;;;;;;6071996;23;20034;-78
2024/02/20 00:46:20;;;;;;;7.47;4.32;;;6.20;99.90;;;;;;6059654;23;20023;-77
2024/02/20 00:49:08;;;;;;;7.78;4.32;;;6.20;99.90;;;;;;6059498;23;20086;-79
2024/02/20 00:51:56;;;;;;;8.15;4.32;;;6.20;99.90;;;;;;6061485;23;20027;-78
2024/02/20 00:54:48;;;;;;;6.28;4.38;;;6.20;99.90;;;;;;6064827;23;20035;-77
2024/02/20 00:57:39;;;;;;;10.90;4.93;;;6.20;99.90;;;;;;6071424;23;20030;-79
2024/02/20 01:00:28;;;;;;;14.40;5.05;;;6.20;99.90;;;;;;6073461;23;20121;-78
2024/02/20 01:03:15;;;;;;;10.38;5.68;;;6.20;99.90;;;;;;6070169;23;20030;-79
2024/02/20 01:06:04;;;;;;;9.48;5.53;;;6.20;99.90;;;;;;6069109;23;20102;-79
2024/02/20 01:08:51;;;;;;;11.45;6.30;;;6.20;99.90;;;;;;6052465;23;20027;-80
2024/02/20 01:11:39;;;;;;;10.52;6.18;;;6.20;99.90;;;;;;6059833;23;20042;-79
2024/02/20 01:14:28;;;;;;;11.38;6.88;;;6.20;99.90;;;;;;6059462;23;20027;-80
2024/02/20 01:17:18;;;;;;;12.75;6.82;;;6.20;99.90;;;;;;6031785;23;20387;-80
2024/02/20 01:20:06;;;;;;;14.88;7.65;;;6.20;99.90;;;;;;6066926;23;20586;-79
2024/02/20 01:22:54;;;;;;;14.35;7.95;;;6.10;99.90;;;;;;6067805;23;20037;-79
2024/02/20 01:25:41;;;;;;;17.63;8.07;;;6.10;99.90;;;;;;6073212;23;20102;-81
2024/02/20 01:28:28;;;;;;;17.20;7.40;;;6.00;99.90;;;;;;6061745;23;20047;-78
2024/02/20 01:31:17;;;;;;;14.27;7.70;;;6.00;99.90;;;;;;6062692;23;20050;-78
2024/02/20 01:34:06;;;;;;;17.92;7.05;;;6.00;99.90;;;;;;6066332;23;20041;-77
2024/02/20 01:36:57;;;;;;;13.88;7.82;;;6.00;99.90;;;;;;6067857;23;20027;-77
2024/02/20 01:39:58;;;;;;;16.08;7.85;;;6.10;99.90;;;;;;6071691;23;20027;-79
2024/02/20 01:42:58;;;;;;;21.23;8.48;;;6.10;99.90;;;;;;6065292;23;20053;-78
2024/02/20 01:45:51;;;;;;;12.70;7.25;;;6.10;99.90;;;;;;6069886;23;20026;-78
2024/02/20 01:48:39;;;;;;;13.35;7.88;;;6.00;99.90;;;;;;6057396;23;20113;-79
2024/02/20 01:51:30;;;;;;;13.63;7.43;;;6.00;99.90;;;;;;6066276;23;20754;-80
2024/02/20 01:54:18;;;;;;;16.15;7.22;;;6.00;99.90;;;;;;6071174;23;20033;-77
2024/02/20 01:57:09;;;;;;;12.55;6.30;;;6.00;99.90;;;;;;6047286;23;20035;-75
2024/02/20 01:59:59;;;;;;;13.05;6.93;;;5.90;99.90;;;;;;6088047;23;20014;-76
2024/02/20 02:02:49;;;;;;;16.75;6.00;;;5.90;99.90;;;;;;6077492;23;20026;-79
2024/02/20 02:05:36;;;;;;;13.88;6.93;;;5.90;99.90;;;;;;6065812;23;20030;-76
2024/02/20 02:08:24;;;;;;;9.73;5.40;;;5.80;99.90;;;;;;6057000;23;20027;-80
2024/02/20 02:11:11;;;;;;;16.67;6.22;;;5.80;99.90;;;;;;6059204;23;20027;-79
2024/02/20 02:14:03;;;;;;;14.15;6.45;;;5.60;99.90;;;;;;6057220;23;20038;-80
2024/02/20 02:16:52;;;;;;;9.95;5.63;;;5.60;99.90;;;;;;6035141;23;20031;-79
2024/02/20 02:19:39;;;;;;;14.02;5.82;;;5.50;99.90;;;;;;6059005;23;20053;-78
2024/02/20 02:22:27;;;;;;;17.08;6.35;;;5.40;99.90;;;;;;6057074;23;20034;-78
2024/02/20 02:25:16;;;;;;;17.38;6.65;;;5.40;99.90;;;;;;6036167;23;20023;-79
2024/02/20 02:28:04;;;;;;;13.23;6.28;;;5.30;99.90;;;;;;6039647;23;20030;-79
2024/02/20 02:30:54;;;;;;;19.42;6.95;;;5.30;99.90;;;;;;6058234;23;20538;-79
2024/02/20 02:33:46;;;;;;;13.63;6.15;;;5.20;99.90;;;;;;6072567;23;20053;-77
2024/02/20 02:36:33;;;;;;;20.23;7.18;;;5.10;99.90;;;;;;6067546;23;20057;-80
2024/02/20 02:39:23;;;;;;;13.93;5.57;;;5.20;99.90;;;;;;6054820;23;20033;-80
2024/02/20 02:42:14;;;;;;;14.77;6.40;;;5.20;99.90;;;;;;6071138;23;20035;-79
2024/02/20 02:45:04;;;;;;;11.15;5.57;;;5.20;99.90;;;;;;6069137;23;20082;-78
2024/02/20 02:47:55;;;;;;;15.68;5.80;;;5.20;99.90;;;;;;6059376;23;20034;-80
2024/02/20 02:50:42;;;;;;;16.73;6.70;;;5.20;99.90;;;;;;6060984;23;20022;-78
2024/02/20 02:53:39;;;;;;;14.60;6.38;;;5.20;99.90;;;;;;6042723;23;20029;-78
2024/02/20 02:56:28;;;;;;;19.88;6.15;;;5.30;99.90;;;;;;6059913;23;20098;-79
2024/02/20 02:59:16;;;;;;;17.17;5.78;;;5.30;99.90;;;;;;6041924;23;20043;-79
2024/02/20 03:02:04;;;;;;;15.27;6.22;;;5.40;99.90;;;;;;6059025;23;20035;-79
2024/02/20 03:04:52;;;;;;;22.02;6.50;;;5.40;99.90;;;;;;6061662;23;20033;-78
2024/02/20 03:07:40;;;;;;;13.93;5.35;;;5.40;99.90;;;;;;6075099;23;20015;-78
2024/02/20 03:10:27;;;;;;;17.38;6.05;;;5.40;99.90;;;;;;6078566;23;20022;-78
2024/02/20 03:13:15;;;;;;;14.27;5.22;;;5.40;99.90;;;;;;6068768;23;20463;-78
2024/02/20 03:16:06;;;;;;;13.73;5.82;;;5.50;99.90;;;;;;6069103;23;20027;-77
2024/02/20 03:18:54;;;;;;;16.52;5.50;;;5.50;99.90;;;;;;6060935;23;20027;-79
2024/02/20 03:21:41;;;;;;;9.40;5.40;;;5.50;99.90;;;;;;6069809;23;20453;-77
2024/02/20 03:24:30;;;;;;;16.27;5.20;;;5.50;99.90;;;;;;6055527;23;20022;-78
2024/02/20 03:27:17;;;;;;;12.35;5.43;;;5.50;99.90;;;;;;6069273;23;20098;-78
2024/02/20 03:30:06;;;;;;;16.13;5.00;;;5.50;99.90;;;;;;6059223;23;20571;-78
2024/02/20 03:32:55;;;;;;;16.35;4.93;;;5.50;99.90;;;;;;6038105;23;20030;-77
2024/02/20 03:35:43;;;;;;;12.88;4.95;;;5.50;99.90;;;;;;6057722;23;20034;-78
2024/02/20 03:38:30;;;;;;;13.82;4.78;;;5.40;99.90;;;;;;6063836;23;20166;-80
2024/02/20 03:41:17;;;;;;;16.33;5.00;;;5.40;99.90;;;;;;6057884;23;20034;-79
2024/02/20 03:44:05;;;;;;;15.82;4.90;;;5.40;99.90;;;;;;6036494;23;20047;-79
2024/02/20 03:46:55;;;;;;;14.30;5.13;;;5.40;99.90;;;;;;6058339;23;20154;-80
2024/02/20 03:49:43;;;;;;;14.70;4.85;;;5.40;99.90;;;;;;6058801;23;20019;-78
2024/02/20 03:52:31;;;;;;;14.02;5.03;;;5.40;99.90;;;;;;6059185;23;20023;-78
2024/02/20 03:55:19;;;;;;;10.73;4.63;;;5.40;99.90;;;;;;6059078;23;20063;-78
2024/02/20 03:58:06;;;;;;;14.32;5.03;;;5.40;99.90;;;;;;6060135;23;20109;-79
2024/02/20 04:00:55;;;;;;;11.07;4.10;;;5.40;99.90;;;;;;6064648;23;20371;-77
2024/02/20 04:03:44;;;;;;;13.32;5.07;;;5.40;99.90;;;;;;6055365;23;20450;-78
2024/02/20 04:06:33;;;;;;;22.00;5.20;;;5.30;99.90;;;;;;6044022;23;20031;-80
2024/02/20 04:09:23;;;;;;;20.80;5.80;;;5.30;99.90;;;;;;6054636;23;20034;-77
2024/02/20 04:12:10;;;;;;;14.52;5.72;;;5.30;99.90;;;;;;6068176;23;20027;-78
2024/02/20 04:14:57;;;;;;;15.60;4.57;;;5.20;99.90;;;;;;6060574;23;20074;-79
2024/02/20 04:17:45;;;;;;;19.33;5.07;;;5.20;99.90;;;;;;6070291;23;20035;-79
2024/02/20 04:20:34;;;;;;;17.30;5.25;;;5.20;99.90;;;;;;6041722;23;20109;-80
2024/02/20 04:23:23;;;;;;;14.90;4.65;;;5.20;99.90;;;;;;6046889;23;20050;-78
2024/02/20 04:26:11;;;;;;;10.80;4.47;;;5.10;99.90;;;;;;6061752;23;20109;-77
2024/02/20 04:29:00;;;;;;;20.92;5.63;;;5.10;99.90;;;;;;6038343;23;20602;-79
2024/02/20 04:31:50;;;;;;;21.20;5.10;;;5.10;99.90;;;;;;6038501;23;20027;-78
2024/02/20 04:34:39;;;;;;;17.63;5.10;;;5.10;99.90;;;;;;6055857;23;20039;-79
2024/02/20 04:37:28;;;;;;;15.32;5.05;;;5.10;99.90;;;;;;6056864;23;20035;-80
2024/02/20 04:40:17;;;;;;;23.75;5.60;;;5.00;99.90;;;;;;6036249;23;20031;-79
2024/02/20 04:43:06;;;;;;;19.88;5.68;;;4.90;99.90;;;;;;6057197;23;20120;-78
2024/02/20 04:45:56;;;;;;;19.27;4.50;;;4.90;99.90;;;;;;6048325;23;20368;-78
2024/02/20 04:48:44;;;;;;;28.90;5.32;;;4.90;99.90;;;;;;6056805;23;20027;-77
2024/02/20 04:51:35;;;;;;;15.30;4.82;;;4.90;99.90;;;;;;6046860;23;20467;-78
2024/02/20 04:54:23;;;;;;;19.95;5.30;;;4.80;99.90;;;;;;6054047;23;20030;-79
2024/02/20 04:57:11;;;;;;;27.08;5.32;;;4.70;99.90;;;;;;6065022;23;20030;-79
2024/02/20 04:59:59;;;;;;;16.20;4.88;;;4.60;99.90;;;;;;6034507;23;20055;-79
2024/02/20 05:02:48;;;;;;;19.17;4.68;;;4.50;99.90;;;;;;6044051;23;20110;-79
2024/02/20 05:05:37;;;;;;;23.38;5.35;;;4.50;99.90;;;;;;6056546;23;20030;-79
2024/02/20 05:08:28;;;;;;;19.98;5.03;;;4.40;99.90;;;;;;6055237;23;20030;-79
2024/02/20 05:11:15;;;;;;;27.90;5.47;;;4.40;99.90;;;;;;6032327;23;20023;-79
2024/02/20 05:14:04;;;;;;;23.75;5.38;;;4.40;99.90;;;;;;6053639;23;20027;-80
2024/02/20 05:16:52;;;;;;;25.38;5.88;;;4.40;99.90;;;;;;6053473;23;20391;-78
2024/02/20 05:19:40;;;;;;;31.08;6.07;;;4.30;99.90;;;;;;6056243;23;20363;-79
2024/02/20 05:22:29;;;;;;;22.00;4.47;;;4.30;99.90;;;;;;6054977;23;20148;-77
2024/02/20 05:25:17;;;;;;;27.02;5.00;;;4.30;99.90;;;;;;6058782;23;20053;-78
2024/02/20 05:28:04;;;;;;;26.00;5.07;;;4.20;99.90;;;;;;6054678;23;20037;-78
2024/02/20 05:30:52;;;;;;;25.83;5.10;;;4.20;99.90;;;;;;6057902;23;20536;-79
2024/02/20 05:33:39;;;;;;;23.48;4.70;;;4.10;99.90;;;;;;6062770;23;20030;-79
2024/02/20 05:36:33;;;;;;;25.35;5.55;;;4.10;95.60;;;;;;6049221;23;20057;-80
2024/02/20 05:39:21;;;;;;;24.33;5.53;;;4.10;94.00;;;;;;6062672;23;20031;-80
2024/02/20 05:42:09;;;;;;;20.38;4.82;;;4.00;95.10;;;;;;6060410;23;20113;-77
2024/02/20 05:44:56;;;;;;;18.92;4.45;;;4.00;87.90;;;;;;6073451;23;20027;-79
2024/02/20 05:47:44;;;;;;;17.50;4.68;;;3.90;80.30;;;;;;6043878;23;20031;-79
2024/02/20 05:50:33;;;;;;;23.83;6.13;;;3.90;99.90;;;;;;6065135;23;20026;-77
2024/02/20 05:53:22;;;;;;;20.02;5.22;;;4.00;99.90;;;;;;6045270;23;20106;-79
2024/02/20 05:56:11;;;;;;;25.90;5.53;;;4.00;99.90;;;;;;6061119;23;20094;-78
2024/02/20 05:58:59;;;;;;;30.88;6.15;;;4.10;99.90;;;;;;6061266;23;20118;-78
2024/02/20 06:01:46;;;;;;;22.48;6.10;;;4.20;99.90;;;;;;6058078;23;20031;-78
2024/02/20 06:04:36;;;;;;;34.22;6.07;;;4.20;99.90;;;;;;6062136;23;20419;-78
2024/02/20 06:07:24;;;;;;;25.60;6.47;;;4.20;99.90;;;;;;6056722;23;20094;-78
2024/02/20 06:10:12;;;;;;;21.67;6.18;;;4.20;99.90;;;;;;6073364;23;20027;-79
2024/02/20 06:13:02;;;;;;;17.13;6.72;;;4.20;99.90;;;;;;6076352;23;20549;-76
2024/02/20 06:15:50;;;;;;;28.35;6.05;;;4.20;99.90;;;;;;6067411;23;20050;-78
2024/02/20 06:18:38;;;;;;;24.40;5.20;;;4.20;99.90;;;;;;6073829;23;20030;-77
2024/02/20 06:21:26;;;;;;;27.27;7.25;;;4.20;99.90;;;;;;6080244;23;20018;-77
2024/02/20 06:24:16;;;;;;;27.05;6.88;;;4.30;99.90;;;;;;6045294;23;20023;-79
2024/02/20 06:27:07;;;;;;;22.23;6.47;;;4.30;99.90;;;;;;6057636;23;20038;-78
2024/02/20 06:29:56;;;;;;;22.70;7.13;;;4.30;99.90;;;;;;6069019;23;20031;-78
2024/02/20 06:32:44;;;;;;;29.65;6.65;;;4.30;99.90;;;;;;6038268;23;20048;-78
2024/02/20 06:35:32;;;;;;;25.70;6.25;;;4.40;99.90;;;;;;6037267;23;20027;-78
2024/02/20 06:38:20;;;;;;;26.10;5.72;;;4.40;99.90;;;;;;6056640;23;20113;-79
2024/02/20 06:41:11;;;;;;;30.75;7.13;;;4.30;99.90;;;;;;6056571;23;20114;-78
2024/02/20 06:43:59;;;;;;;28.80;7.55;;;4.40;99.90;;;;;;6058706;23;20517;-78
2024/02/20 06:46:46;;;;;;;24.67;6.25;;;4.40;99.90;;;;;;6074570;23;20011;-78
2024/02/20 06:49:34;;;;;;;26.90;7.05;;;4.40;99.90;;;;;;6076783;23;20053;-77
2024/02/20 06:52:22;;;;;;;31.52;6.30;;;4.40;99.90;;;;;;6059125;23;20168;-79
2024/02/20 06:55:09;;;;;;;27.88;6.85;;;4.40;99.90;;;;;;6055420;23;20046;-79
2024/02/20 06:57:58;;;;;;;29.33;7.28;;;4.40;99.90;;;;;;6054557;23;20446;-77
2024/02/20 07:00:48;;;;;;;20.65;6.95;;;4.40;99.90;;;;;;6063026;23;20031;-78
2024/02/20 07:03:37;;;;;;;26.60;6.10;;;4.40;99.90;;;;;;6034997;23;20102;-79
2024/02/20 07:06:24;;;;;;;33.13;8.15;;;4.50;99.90;;;;;;6066317;23;20066;-79
2024/02/20 07:09:13;;;;;;;22.15;5.57;;;4.50;99.90;;;;;;6043218;23;20023;-79
2024/02/20 07:12:03;;;;;;;23.42;6.25;;;4.60;89.90;;;;;;6056060;23;20034;-79
2024/02/20 07:14:50;;;;;;;24.38;5.50;;;4.60;35.80;;;;;;6061936;23;20031;-78
2024/02/20 07:17:38;;;;;;;23.85;5.43;;;4.60;8.30;;;;;;6072344;23;20069;-78
2024/02/20 07:20:25;;;;;;;23.73;5.47;;;4.60;1.00;;;;;;6043069;23;20047;-77
2024/02/20 07:23:13;;;;;;;24.05;6.18;;;4.60;1.00;;;;;;6056191;23;20066;-79
2024/02/20 07:26:00;;;;;;;28.67;6.40;;;4.70;1.00;;;;;;6034541;23;20022;-77
2024/02/20 07:28:50;;;;;;;25.52;7.22;;;4.60;1.00;;;;;;6055238;23;20027;-77
2024/02/20 07:31:39;;;;;;;25.65;5.95;;;4.70;99.90;;;;;;6056431;23;20102;-78
2024/02/20 07:34:29;;;;;;;18.42;6.78;;;4.70;99.90;;;;;;6058588;23;20039;-78
2024/02/20 07:37:18;;;;;;;24.92;6.55;;;4.70;99.90;;;;;;6056671;23;20031;-78
2024/02/20 07:40:11;;;;;;;21.38;5.18;;;4.80;99.90;;;;;;6063832;23;20632;-77
2024/02/20 07:43:01;;;;;;;23.02;4.97;;;4.80;99.90;;;;;;6056685;23;20023;-79
2024/02/20 07:45:48;;;;;;;21.80;5.22;;;4.90;1.00;;;;;;6067196;23;20038;-77
2024/02/20 07:48:36;;;;;;;13.70;4.25;;;4.90;1.00;;;;;;6046249;23;20466;-78
2024/02/20 07:51:24;;;;;;;24.77;5.03;;;5.00;99.90;;;;;;6067057;23;20198;-78
2024/02/20 07:54:12;;;;;;;16.42;4.38;;;5.10;99.90;;;;;;6082170;23;20027;-78
2024/02/20 07:57:01;;;;;;;27.73;5.82;;;5.10;1.00;;;;;;6078433;23;20022;-78
2024/02/20 07:59:52;;;;;;;25.30;5.00;;;5.10;99.90;;;;;;6088827;23;20042;-78
2024/02/20 08:02:42;;;;;;;25.77;4.40;;;5.20;99.90;;;;;;6080542;23;20023;-79
2024/02/20 08:05:31;;;;;;;22.00;5.03;;;5.20;69.40;;;;;;6069551;23;20025;-80
2024/02/20 08:08:19;;;;;;;16.42;4.68;;;5.30;1.00;;;;;;6060105;23;20026;-77
2024/02/20 08:11:08;;;;;;;18.85;5.47;;;5.40;99.90;;;;;;6055393;23;20034;-79
2024/02/20 08:13:56;;;;;;;20.20;5.75;;;5.60;61.10;;;;;;6056974;23;20042;-79
2024/02/20 08:16:48;;;;;;;22.90;4.45;;;5.60;99.90;;;;;;6055452;23;20320;-80
2024/02/20 08:19:39;;;;;;;15.85;5.22;;;5.60;99.90;;;;;;6056841;23;20121;-79
2024/02/20 08:22:26;;;;;;;20.23;3.92;;;5.60;1.00;;;;;;6054334;23;20023;-79
2024/02/20 08:25:18;;;;;;;19.77;4.80;;;5.70;99.90;;;;;;6057843;23;20477;-79
2024/02/20 08:28:06;;;;;;;22.52;4.35;;;5.80;99.90;;;;;;6055428;23;20461;-78
2024/02/20 08:30:53;;;;;;;19.08;4.32;;;5.90;84.90;;;;;;6065355;23;20045;-79
2024/02/20 08:33:41;;;;;;;20.90;4.38;;;6.00;1.00;;;;;;6036086;23;20038;-79
2024/02/20 08:36:37;;;;;;;19.70;4.60;;;6.00;99.90;;;;;;6066413;23;20031;-80
2024/02/20 08:39:25;;;;;;;14.45;4.38;;;6.10;99.90;;;;;;6066085;23;20081;-80
2024/02/20 08:42:13;;;;;;;21.90;4.40;;;6.00;1.00;;;;;;6059811;23;20066;-79
2024/02/20 08:45:03;;;;;;;19.80;4.10;;;6.00;1.00;;;;;;6057000;23;20107;-79
2024/02/20 08:47:51;;;;;;;18.33;4.30;;;6.10;99.90;;;;;;6078945;23;20025;-79
2024/02/20 08:50:39;;;;;;;19.08;4.72;;;6.20;99.90;;;;;;6037771;23;20023;-79
2024/02/20 08:53:27;;;;;;;14.10;4.85;;;6.20;99.90;;;;;;6067659;23;20039;-80
2024/02/20 08:56:23;;;;;;;18.50;4.25;;;6.40;99.90;;;;;;6072663;23;20158;-80
2024/02/20 08:59:10;;;;;;;19.85;3.75;;;6.40;99.90;;;;;;6055625;23;20054;-77
2024/02/20 09:02:00;;;;;;;15.60;4.68;;;6.40;99.90;;;;;;6056249;23;20247;-79
2024/02/20 09:04:52;;;;;;;20.27;4.40;;;6.50;99.90;;;;;;6056581;23;20149;-80
2024/02/20 09:07:42;;;;;;;19.25;4.53;;;6.60;34.70;;;;;;6054807;23;20027;-78
2024/02/20 09:10:29;;;;;;;22.58;4.90;;;6.90;1.00;;;;;;6057173;23;20127;-77
2024/02/20 09:13:17;;;;;;;22.77;4.38;;;7.40;1.00;;;;;;6056290;23;20490;-76
2024/02/20 09:16:05;;;;;;;17.80;3.78;;;8.20;1.00;;;;;;6035262;23;20042;-80
2024/02/20 09:18:52;;;;;;;15.30;3.95;;;9.20;99.90;;;;;;6056191;23;20659;-78
2024/02/20 09:21:43;;;;;;;16.08;3.60;;;9.70;99.90;;;;;;6065160;23;20039;-77
2024/02/20 09:24:30;;;;;;;22.80;4.07;;;9.80;1.00;;;;;;6065984;23;20607;-79
2024/02/20 09:27:18;;;;;;;15.80;3.47;;;10.00;1.00;;;;;;6056491;23;20492;-77
2024/02/20 09:30:07;;;;;;;15.32;3.25;;;9.60;99.90;;;;;;6065421;23;20026;-79
2024/02/20 09:33:08;;;;;;;22.10;4.63;;;9.80;99.90;;;;;;6058314;23;20030;-79
2024/02/20 09:35:56;;;;;;;19.80;4.57;;;9.80;99.90;;;;;;6058237;23;20030;-78
2024/02/20 09:38:44;;;;;;;14.35;3.20;;;9.70;99.90;;;;;;6037035;23;20099;-81
2024/02/20 09:41:37;;;;;;;24.17;4.80;;;9.70;99.90;;;;;;6035869;23;20030;-77
2024/02/20 09:44:27;;;;;;;21.80;4.22;;;9.50;99.90;;;;;;6058005;23;20033;-80
2024/02/20 09:47:21;;;;;;;21.65;4.55;;;9.00;99.90;;;;;;6057011;23;20018;-80
2024/02/20 09:50:12;;;;;;;18.02;4.38;;;8.70;66.60;;;;;;6057579;23;20446;-79
2024/02/20 09:53:01;;;;;;;23.52;4.53;;;8.80;73.50;;;;;;6058008;23;20278;-78
2024/02/20 09:55:54;;;;;;;16.13;4.25;;;9.10;66.00;;;;;;6058513;23;20035;-78
2024/02/20 09:58:43;;;;;;;20.92;3.78;;;9.10;43.00;;;;;;6060682;23;20027;-78
2024/02/20 10:01:32;;;;;;;13.68;3.47;;;9.20;58.90;;;;;;6075392;23;20018;-78
2024/02/20 10:04:23;;;;;;;15.23;4.18;;;9.00;42.90;;;;;;6039837;23;20390;-79
2024/02/20 10:07:11;;;;;;;17.42;4.40;;;8.80;17.10;;;;;;6058178;23;20038;-79
2024/02/20 10:10:00;;;;;;;21.13;4.07;;;8.60;3.00;;;;;;6075599;23;20030;-78
2024/02/20 10:13:00;;;;;;;18.52;4.13;;;9.20;76.10;;;;;;6090956;23;20017;-77
2024/02/20 10:15:49;;;;;;;19.00;3.95;;;11.00;99.90;;;;;;6059118;23;20031;-78
2024/02/20 10:18:37;;;;;;;16.05;3.30;;;12.30;99.90;;;;;;6064336;23;20062;-78
2024/02/20 10:21:26;;;;;;;13.35;2.97;;;13.20;99.90;;;;;;6067273;23;20058;-79
2024/02/20 10:24:15;;;;;;;16.67;3.90;;;12.40;99.90;;;;;;6051621;23;20458;-80
2024/02/20 10:27:14;;;;;;;15.63;3.72;;;11.80;99.90;;;;;;6069233;23;20774;-79
2024/02/20 10:30:09;;;;;;;14.45;3.70;;;11.50;99.90;;;;;;6065579;23;20034;-79
2024/02/20 10:32:58;;;;;;;11.40;2.97;;;11.70;99.90;;;;;;6057199;23;20023;-80
2024/02/20 10:35:46;;;;;;;11.68;2.78;;;12.60;99.90;;;;;;6065304;23;20030;-78
2024/02/20 10:38:35;;;;;;;15.27;3.92;;;12.70;99.90;;;;;;6056264;23;20166;-79
2024/02/20 10:41:42;;;;;;;13.38;3.47;;;12.40;99.90;;;;;;6035804;23;20022;-80
2024/02/20 10:44:33;;;;;;;;;;;12.20;99.90;;;;;;6057554;23;20026;-80
2024/02/20 10:47:26;;;;;;;14.32;3.53;;;12.40;99.90;;;;;;6053157;23;20349;-80
2024/02/20 10:50:17;;;;;;;11.47;3.37;;;13.40;99.90;;;;;;6058945;23;20035;-81
2024/02/20 10:53:10;;;;;;;14.20;3.17;;;14.70;99.90;;;;;;6057717;23;20022;-80
2024/02/20 10:56:02;;;;;;;9.52;2.70;;;14.70;99.90;;;;;;6059213;23;20026;-79
2024/02/20 10:58:50;;;;;;;9.40;2.35;;;13.70;99.90;;;;;;6056864;23;20027;-79
2024/02/20 11:01:39;;;;;;;16.33;3.65;;;12.60;99.90;;;;;;6039671;23;20106;-79
2024/02/20 11:04:28;;;;;;;15.02;3.40;;;11.70;99.90;;;;;;6038289;23;20391;-78
2024/02/20 11:07:20;;;;;;;12.10;3.08;;;11.90;99.90;;;;;;6035863;23;20033;-78
2024/02/20 11:10:17;;;;;;;12.43;3.08;;;11.80;99.90;;;;;;6063713;23;20102;-80
2024/02/20 11:13:37;;;;;;;10.98;2.78;;;11.40;99.90;;;;;;6058714;23;20038;-80
2024/02/20 11:16:35;;;;;;;15.98;3.00;;;12.30;99.90;;;;;;6057770;23;20039;-79
2024/02/20 11:19:26;;;;;;;14.60;3.65;;;13.50;99.90;;;;;;6060990;23;20026;-79
2024/02/20 11:22:27;;;;;;;9.40;2.83;;;14.90;99.90;;;;;;6059582;23;20046;-80
2024/02/20 11:25:32;;;;;;;11.43;2.88;;;15.40;99.90;;;;;;6060396;23;20045;-81
2024/02/20 11:28:19;;;;;;;10.40;2.38;;;15.50;99.90;;;;;;6060659;23;20031;-78
2024/02/20 11:31:07;;;;;;;9.35;2.13;;;16.40;99.90;;;;;;6059425;23;20027;-78
2024/02/20 11:33:56;;;;;;;7.60;2.03;;;16.80;82.30;;;;;;6052079;23;20022;-79
2024/02/20 11:36:45;;;;;;;8.82;2.20;;;15.90;62.20;;;;;;6062770;23;20296;-79
2024/02/20 11:39:37;;;;;;;11.90;2.70;;;15.70;51.90;;;;;;6068187;23;20042;-79
2024/02/20 11:42:24;;;;;;;12.93;2.67;;;15.80;44.10;;;;;;6064225;23;20026;-80
2024/02/20 11:45:24;;;;;;;13.60;3.75;;;15.40;39.80;;;;;;6068805;23;20038;-80
2024/02/20 11:48:13;;;;;;;8.10;2.88;;;16.10;33.10;;;;;;6044228;23;20589;-79
2024/02/20 11:51:02;;;;;;;14.23;3.08;;;16.10;27.00;;;;;;6058872;23;20019;-81
2024/02/20 11:54:12;;;;;;;14.95;3.22;;;16.50;23.70;;;;;;6066224;23;20022;-80
2024/02/20 11:57:01;;;;;;;8.77;2.40;;;16.60;20.40;;;;;;6060206;23;20415;-81
2024/02/20 11:59:49;;;;;;;12.20;2.78;;;16.10;14.90;;;;;;6045455;23;20143;-80
2024/02/20 12:02:38;;;;;;;11.50;2.50;;;16.10;13.30;;;;;;6061992;23;20376;-79
2024/02/20 12:05:39;;;;;;;7.93;2.55;;;15.60;8.70;;;;;;6059904;23;20101;-79
2024/02/20 12:08:41;;;;;;;10.88;3.20;;;14.20;8.30;;;;;;6059828;23;20031;-77
2024/02/20 12:11:30;;;;;;;10.48;2.75;;;13.30;7.80;;;;;;6078458;23;20033;-77
2024/02/20 12:14:19;;;;;;;10.77;2.25;;;12.40;17.00;;;;;;6078798;23;20027;-77
2024/02/20 12:17:10;;;;;;;12.23;2.85;;;11.80;25.20;;;;;;6069323;23;20031;-79
2024/02/20 12:20:05;;;;;;;14.80;3.05;;;11.70;34.40;;;;;;6063501;23;20022;-80
2024/02/20 12:23:01;;;;;;;9.75;2.70;;;11.70;41.90;;;;;;6069020;23;20027;-79
2024/02/20 12:25:50;;;;;;;12.48;3.03;;;11.40;45.00;;;;;;6063248;23;20051;-78
2024/02/20 12:28:41;;;;;;;10.32;3.08;;;11.10;45.90;;;;;;6071859;23;20387;-79
2024/02/20 12:31:32;;;;;;;15.15;3.10;;;10.70;51.60;;;;;;6050123;23;20023;-78
2024/02/20 12:34:21;;;;;;;14.30;3.20;;;10.40;55.90;;;;;;6038353;23;20027;-79
2024/02/20 12:37:25;;;;;;;12.68;2.92;;;10.30;57.20;;;;;;6041864;23;20334;-79
2024/02/20 12:40:44;;;;;;;14.27;3.05;;;9.80;61.00;;;;;;6062286;23;20066;-79
2024/02/20 12:43:35;;;;;;;8.80;2.63;;;9.80;80.00;;;;;;6073204;23;20026;-76
2024/02/20 12:46:23;;;;;;;12.07;2.90;;;10.20;90.00;;;;;;6071105;23;20023;-79
2024/02/20 12:49:12;;;;;;;12.23;3.50;;;10.90;88.40;;;;;;6064895;23;20480;-77
2024/02/20 12:52:00;;;;;;;10.70;2.58;;;11.20;77.40;;;;;;6061406;23;20074;-79
2024/02/20 12:54:49;;;;;;;12.43;3.03;;;11.50;75.50;;;;;;6066982;23;20034;-78
2024/02/20 12:57:42;;;;;;;12.95;2.75;;;11.50;64.10;;;;;;6059311;23;20037;-80
2024/02/20 13:00:40;;;;;;;9.55;2.50;;;11.70;73.20;;;;;;6068409;23;20492;-77
2024/02/20 13:03:31;;;;;;;10.95;2.70;;;12.10;76.60;;;;;;6045895;23;20042;-78
2024/02/20 13:06:21;;;;;;;12.55;3.13;;;14.10;66.40;;;;;;6068815;23;20760;-78
2024/02/20 13:09:10;;;;;;;14.25;2.95;;;15.90;43.10;;;;;;6067540;23;20030;-79
2024/02/20 13:12:04;;;;;;;12.70;3.00;;;15.30;23.20;;;;;;6060736;23;20034;-77
2024/02/20 13:14:53;;;;;;;15.35;3.03;;;13.90;15.50;;;;;;6059359;23;20067;-78
2024/02/20 13:17:41;;;;;;;14.38;3.35;;;13.00;16.90;;;;;;6063953;23;20034;-78
2024/02/20 13:20:35;;;;;;;8.60;2.90;;;12.50;29.70;;;;;;6061770;23;20034;-78
2024/02/20 13:23:26;;;;;;;8.77;3.50;;;12.00;20.90;;;;;;6060586;23;20030;-78
2024/02/20 13:26:17;;;;;;;9.80;3.25;;;11.70;26.40;;;;;;6043262;23;20078;-75
2024/02/20 13:29:11;;;;;;;9.77;2.40;;;12.10;28.00;;;;;;6067641;23;20173;-79
2024/02/20 13:31:58;;;;;;;8.25;2.63;;;12.30;23.20;;;;;;6078982;23;20093;-78
2024/02/20 13:34:49;;;;;;;11.90;2.83;;;12.90;22.60;;;;;;6059328;23;20031;-80
2024/02/20 13:37:51;;;;;;;;;;;14.70;16.30;;;;;;6065693;23;20122;-79
2024/02/20 13:40:39;;;;;;;12.07;2.40;;;15.20;1.00;;;;;;6063159;23;19918;-79
2024/02/20 13:43:39;;;;;;;9.25;1.90;;;14.70;1.00;;;;;;6061205;23;20030;-78
2024/02/20 13:46:31;;;;;;;6.40;1.98;;;15.80;1.00;;;;;;6057031;23;20030;-78
2024/02/20 13:49:34;;;;;;;12.25;3.08;;;17.30;1.00;;;;;;6041317;23;20051;-79
2024/02/20 13:52:34;;;;;;;8.38;3.10;;;17.80;1.00;;;;;;6066642;23;20034;-78
2024/02/20 13:55:21;;;;;;;8.63;2.38;;;18.10;1.00;;;;;;6063110;23;20031;-76
2024/02/20 13:58:18;;;;;;;17.80;2.85;;;17.70;1.00;;;;;;6060843;23;20061;-79
2024/02/20 14:01:06;;;;;;;7.00;2.42;;;17.60;1.00;;;;;;6063389;23;20034;-79
2024/02/20 14:03:54;;;;;;;11.00;3.05;;;17.80;1.00;;;;;;6073667;23;20030;-77
2024/02/20 14:06:42;;;;;;;11.15;3.45;;;18.10;1.00;;;;;;6060001;23;20431;-79
2024/02/20 14:09:35;;;;;;;10.70;2.65;;;17.40;1.00;;;;;;6073665;23;20130;-78
2024/02/20 14:12:26;;;;;;;15.48;3.78;;;14.30;1.00;;;;;;6061585;23;20031;-77
2024/02/20 14:15:20;;;;;;;11.63;3.38;;;12.60;1.00;;;;;;6072563;23;20048;-79
2024/02/20 14:18:08;;;;;;;12.82;3.17;;;11.30;1.00;;;;;;6081146;23;20035;-79
2024/02/20 14:21:12;;;;;;;15.63;3.55;;;11.00;1.00;;;;;;6077684;23;20071;-77
2024/02/20 14:24:00;;;;;;;13.77;3.30;;;10.80;1.00;;;;;;6050238;23;20055;-79
2024/02/20 14:27:07;;;;;;;;;;;;;;;;;;;;;
2024/02/20 14:30:18;;;;;;;7.85;3.15;;;10.20;1.00;;;;;;6071022;23;20027;-78
2024/02/20 14:33:13;;;;;;;13.85;3.45;;;10.20;1.00;;;;;;6074833;23;20051;-79
2024/02/20 14:36:01;;;;;;;8.15;2.92;;;10.20;5.60;;;;;;6027688;23;20193;-78
2024/02/20 14:38:51;;;;;;;12.48;4.07;;;10.40;10.70;;;;;;6058883;23;20059;-78
2024/02/20 14:41:49;;;;;;;10.52;3.17;;;10.10;11.10;;;;;;6036462;23;20027;-78
2024/02/20 14:44:37;;;;;;;11.70;2.92;;;10.30;16.10;;;;;;6056576;23;20105;-78
2024/02/20 14:47:25;;;;;;;14.40;3.30;;;10.60;17.70;;;;;;6054790;23;20050;-77